If you wish to contribute or participate in the discussions about articles you are invited to join SKYbrary as a registered user

 Actions

Andres Sabella Galvez International Airport

From SKYbrary Wiki

SCFA
Airport
ICAO: SCFA – IATA: ANF
Summary
Name Andres Sabella Galvez International Airport
Region South America and Caribbean
Territory Chile CL.gif
Location La Chimba, Antofagasta
Serving Antofagasta
Elevation 138.684 m <br />455 ft <br />455 ft138.684 m <br />
Type medium airport
Coordinates 23° 26' 40.12" S, 70° 26' 42.36" W
Runways
Designator Length Width Surface ROPS
1/19 2599 m8,526.903 ft <br /> 50 m164.042 ft <br /> ASP /


METAR
Observation SCFA 181700Z 20011KT 9999 FEW019 19/13 Q1014 NOSIG
Station Antofagasta
Date/Time 18 April 2021 17:00:00
Wind direction 200°
Wind speed 11 kts
Lowest cloud amount few clouds
Temperature 19°C
Dew point 13°C
Humidity 68%
QNH 1014 hPa
Weather condition n/a

International airport 6.2 nm11,482.4 m <br />11.482 km <br />37,671.916 ft <br /> north of Antofagasta, Chile.

Climatology

Mild desert climate (Köppen climate classification BWn)

Maps

Terrain

Loading map...

Airport Layout

Loading map...


Accidents & Serious Incidents at or in vicinity of SCFA

None on SKYbrary